Time;durP1;ratioP1;P1;durP2;ratioP2;P2;SDS_P1;SDS_P2;PMS_P1;PMS_P2;Temp;Humidity;BMP_temperature;BMP_pressure;BME280_temperature;BME280_humidity;BME280_pressure;Samples;Min_cycle;Max_cycle;Signal;HPM_P1;HPM_P2
2024/02/04 00:10:46;;;;;;;8.5;3.5;;;;;;;8;86.33;98618.333333333;;;;
2024/02/04 00:20:46;;;;;;;7.4;3.8;;;;;;;8.02;85.44;98613.333333333;;;;
2024/02/04 00:31:46;;;;;;;7.4;3.8;;;;;;;8.15;84.01;98598.333333333;;;;
2024/02/04 00:41:46;;;;;;;7.4;3.8;;;;;;;8.2;83.49;98595;;;;
2024/02/04 00:52:46;;;;;;;4.8;2.6;;;;;;;8.2;83.34;98601.666666667;;;;
2024/02/04 01:02:46;;;;;;;4.8;2.6;;;;;;;8.25;83.41;98595;;;;
2024/02/04 01:13:46;;;;;;;4.8;2.6;;;;;;;8.12;83.89;98575;;;;
2024/02/04 01:24:48;;;;;;;5.1;2.6;;;;;;;8.11;84.43;98566.666666667;;;;
2024/02/04 01:35:46;;;;;;;5.1;2.6;;;;;;;7.97;85.56;98573.333333333;;;;
2024/02/04 01:46:46;;;;;;;5.1;2.6;;;;;;;7.84;86.87;98555;;;;
2024/02/04 01:56:46;;;;;;;5.9;3.2;;;;;;;7.88;86.9;98550;;;;
2024/02/04 02:07:51;;;;;;;5.9;3.2;;;;;;;7.8;87.32;98540;;;;
2024/02/04 02:18:46;;;;;;;5.9;3.2;;;;;;;7.74;87.15;98545;;;;
2024/02/04 02:28:46;;;;;;;5.4;3.1;;;;;;;7.66;87.71;98530;;;;
2024/02/04 02:39:46;;;;;;;5.4;3.1;;;;;;;7.76;87.22;98530;;;;
2024/02/04 02:49:46;;;;;;;5.4;3.1;;;;;;;7.78;87.03;98541.666666667;;;;
2024/02/04 03:00:46;;;;;;;5.1;2.8;;;;;;;7.82;87.18;98560;;;;
2024/02/04 03:11:46;;;;;;;5.1;2.8;;;;;;;7.54;88.08;98605;;;;
2024/02/04 03:21:46;;;;;;;4.4;2.2;;;;;;;7.27;88.67;98616.666666667;;;;
2024/02/04 03:31:46;;;;;;;4.4;2.2;;;;;;;7.04;87.59;98600;;;;
2024/02/04 03:42:47;;;;;;;4.4;2.2;;;;;;;6.95;87.51;98588.333333333;;;;
2024/02/04 03:53:46;;;;;;;4.1;1.5;;;;;;;6.85;87.17;98585;;;;
2024/02/04 04:03:46;;;;;;;4.1;1.5;;;;;;;6.87;87.6;98580;;;;
2024/02/04 04:13:47;;;;;;;4.1;1.5;;;;;;;6.82;87.16;98586.666666667;;;;
2024/02/04 04:24:47;;;;;;;3.4;1.8;;;;;;;6.86;87.56;98598.333333333;;;;
2024/02/04 04:34:46;;;;;;;3.4;1.8;;;;;;;6.87;87.62;98598.333333333;;;;
2024/02/04 04:44:47;;;;;;;3.4;1.8;;;;;;;6.92;87.45;98591.666666667;;;;
2024/02/04 04:54:47;;;;;;;5;2.5;;;;;;;6.97;86.88;98581.666666667;;;;
2024/02/04 05:04:47;;;;;;;5;2.5;;;;;;;7.04;86.82;98565;;;;
2024/02/04 05:14:47;;;;;;;5;2.5;;;;;;;7.03;87.09;98560;;;;
2024/02/04 05:25:46;;;;;;;3.3;1.6;;;;;;;6.87;88.59;98563.333333333;;;;
2024/02/04 05:35:47;;;;;;;3.3;1.6;;;;;;;6.96;89.45;98581.666666667;;;;
2024/02/04 05:46:47;;;;;;;3.3;1.6;;;;;;;7;89.73;98573.333333333;;;;
2024/02/04 05:57:47;;;;;;;5;2.4;;;;;;;6.97;90.13;98563.333333333;;;;
2024/02/04 06:08:47;;;;;;;5;2.4;;;;;;;7.01;90.68;98590;;;;
2024/02/04 06:18:47;;;;;;;5;2.4;;;;;;;6.92;90.33;98620;;;;
2024/02/04 06:29:46;;;;;;;4;2.5;;;;;;;6.89;89.11;98596.666666667;;;;
2024/02/04 06:39:47;;;;;;;4;2.5;;;;;;;6.89;88.01;98578.333333333;;;;
2024/02/04 06:50:47;;;;;;;3.7;2.1;;;;;;;6.96;87.16;98601.666666667;;;;
2024/02/04 07:00:47;;;;;;;3.7;2.1;;;;;;;6.91;84.72;98596.666666667;;;;
2024/02/04 07:11:47;;;;;;;3.7;2.1;;;;;;;6.83;83.95;98620;;;;
2024/02/04 07:21:47;;;;;;;4.7;1.9;;;;;;;6.8;83.23;98598.333333333;;;;
2024/02/04 07:32:47;;;;;;;4.7;1.9;;;;;;;6.93;82.4;98606.666666667;;;;
2024/02/04 07:42:47;;;;;;;4.7;1.9;;;;;;;7.07;80.98;98618.333333333;;;;
2024/02/04 07:53:47;;;;;;;2.8;1.5;;;;;;;7.14;78.09;98606.666666667;;;;
2024/02/04 08:04:47;;;;;;;2.8;1.5;;;;;;;7.21;77.22;98631.666666667;;;;
2024/02/04 08:15:47;;;;;;;2.8;1.5;;;;;;;7.11;75.32;98630;;;;
2024/02/04 08:25:47;;;;;;;4.3;1.6;;;;;;;7.12;76.35;98640;;;;
2024/02/04 08:36:47;;;;;;;4.3;1.6;;;;;;;7;79.48;98655;;;;
2024/02/04 08:47:47;;;;;;;4.3;1.6;;;;;;;6.94;81.86;98651.666666667;;;;
2024/02/04 08:57:48;;;;;;;3.4;1.8;;;;;;;7.15;81.36;98641.666666667;;;;
2024/02/04 09:07:47;;;;;;;3.4;1.8;;;;;;;7.09;79.84;98658.333333333;;;;
2024/02/04 09:18:47;;;;;;;3.4;1.8;;;;;;;7.28;81.01;98646.666666667;;;;
2024/02/04 09:29:47;;;;;;;5.3;2.5;;;;;;;7.23;80.77;98671.666666667;;;;
2024/02/04 09:40:47;;;;;;;5.3;2.5;;;;;;;7.23;80.71;98686.666666667;;;;
2024/02/04 09:51:47;;;;;;;6.6;3.6;;;;;;;7.39;81.3;98698.333333333;;;;
2024/02/04 10:02:47;;;;;;;6.6;3.6;;;;;;;7.73;80.36;98658.333333333;;;;
2024/02/04 10:13:47;;;;;;;6.6;3.6;;;;;;;7.95;80.7;98655;;;;
2024/02/04 10:24:48;;;;;;;6.5;3.6;;;;;;;7.92;80.63;98638.333333333;;;;
2024/02/04 10:34:47;;;;;;;6.5;3.6;;;;;;;8.09;80.46;98620;;;;
2024/02/04 10:45:47;;;;;;;6.5;3.6;;;;;;;8.31;79.78;98586.666666667;;;;
2024/02/04 10:55:47;;;;;;;9.1;3.6;;;;;;;8.37;80.53;98588.333333333;;;;
2024/02/04 11:06:47;;;;;;;9.1;3.6;;;;;;;8.39;81.1;98561.666666667;;;;
2024/02/04 11:17:47;;;;;;;9.1;3.6;;;;;;;8.53;80.55;98545;;;;
2024/02/04 11:28:47;;;;;;;7.7;4.5;;;;;;;8.64;80.86;98520;;;;
2024/02/04 11:38:47;;;;;;;7.7;4.5;;;;;;;8.87;79.43;98505;;;;
2024/02/04 11:49:47;;;;;;;7.6;4.2;;;;;;;8.98;78.89;98488.333333333;;;;
2024/02/04 11:59:47;;;;;;;7.6;4.2;;;;;;;9.15;79.2;98466.666666667;;;;
2024/02/04 12:09:47;;;;;;;7.6;4.2;;;;;;;8.97;78.86;98430;;;;
2024/02/04 12:20:47;;;;;;;8.5;5.1;;;;;;;8.66;81.04;98392.5;;;;
2024/02/04 12:31:47;;;;;;;8.5;5.1;;;;;;;8.65;83.14;98367.5;;;;
2024/02/04 12:41:47;;;;;;;8.5;5.1;;;;;;;8.65;84.1;98345;;;;
2024/02/04 12:52:47;;;;;;;7.7;4;;;;;;;8.57;85.34;98350;;;;
2024/02/04 13:02:47;;;;;;;7.7;4;;;;;;;8.67;85.36;98332.5;;;;
2024/02/04 13:13:47;;;;;;;7.7;4;;;;;;;8.59;86.2;98345;;;;
2024/02/04 13:23:47;;;;;;;6.6;4;;;;;;;8.26;88.39;98322.5;;;;
2024/02/04 13:33:47;;;;;;;6.6;4;;;;;;;8.28;88.78;98295;;;;
2024/02/04 13:44:47;;;;;;;6.6;4;;;;;;;8.27;88.83;98280;;;;
2024/02/04 13:55:47;;;;;;;8.6;4.8;;;;;;;8.24;89.45;98315;;;;
2024/02/04 14:05:47;;;;;;;8.6;4.8;;;;;;;8.11;89.75;98330;;;;
2024/02/04 14:16:47;;;;;;;8.6;4.8;;;;;;;7.94;88.66;98340;;;;
2024/02/04 14:26:48;;;;;;;7.4;4.2;;;;;;;7.77;87.88;98295;;;;
2024/02/04 14:36:47;;;;;;;7.4;4.2;;;;;;;7.73;86.72;98267.5;;;;
2024/02/04 14:47:47;;;;;;;7.4;4.2;;;;;;;7.6;86.54;98262.5;;;;
2024/02/04 14:57:47;;;;;;;5.6;2.3;;;;;;;7.52;88.31;98270;;;;
2024/02/04 15:07:48;;;;;;;5.6;2.3;;;;;;;7.38;89.36;98264;;;;
2024/02/04 15:18:47;;;;;;;5.6;2.3;;;;;;;7.4;89.28;98244;;;;
2024/02/04 15:29:47;;;;;;;9.3;4.2;;;;;;;7.31;89.2;98234;;;;
2024/02/04 15:39:47;;;;;;;9.3;4.2;;;;;;;7.26;89.38;98222;;;;
2024/02/04 15:50:47;;;;;;;8.7;4.5;;;;;;;7.33;89.42;98190;;;;
2024/02/04 16:01:47;;;;;;;8.7;4.5;;;;;;;7.41;89.3;98187.5;;;;
2024/02/04 16:11:47;;;;;;;8.7;4.5;;;;;;;7.42;89.81;98185;;;;
2024/02/04 16:21:48;;;;;;;8.2;4;;;;;;;7.44;90.13;98182.5;;;;
2024/02/04 16:31:47;;;;;;;8.2;4;;;;;;;7.41;90.42;98194;;;;
2024/02/04 16:42:47;;;;;;;8.2;4;;;;;;;7.35;90.78;98178.333333333;;;;
2024/02/04 16:53:47;;;;;;;7;3.3;;;;;;;7.26;91.45;98180;;;;
2024/02/04 17:04:49;;;;;;;7;3.3;;;;;;;7.28;91.35;98156.666666667;;;;
2024/02/04 17:15:47;;;;;;;7;3.3;;;;;;;7.35;91.88;98168.333333333;;;;
2024/02/04 17:26:47;;;;;;;8.9;3.8;;;;;;;7.4;92.3;98186.666666667;;;;
2024/02/04 17:37:47;;;;;;;8.9;3.8;;;;;;;7.34;92.66;98155;;;;
2024/02/04 17:47:48;;;;;;;8.9;3.8;;;;;;;7.43;92.6;98186.666666667;;;;
2024/02/04 17:58:48;;;;;;;10.1;4.9;;;;;;;7.4;92.87;98158.333333333;;;;
2024/02/04 18:08:47;;;;;;;10.1;4.9;;;;;;;7.41;91.83;98146.666666667;;;;
2024/02/04 18:18:47;;;;;;;10.1;4.9;;;;;;;7.63;89.24;98161.666666667;;;;
2024/02/04 18:28:47;;;;;;;6.8;3.3;;;;;;;7.72;90.36;98173.333333333;;;;
2024/02/04 18:39:47;;;;;;;6.8;3.3;;;;;;;7.56;89.33;98168.333333333;;;;
2024/02/04 18:50:47;;;;;;;7.8;3.6;;;;;;;7.62;88.56;98175;;;;
2024/02/04 19:00:47;;;;;;;7.8;3.6;;;;;;;7.66;88.04;98176.666666667;;;;
2024/02/04 19:11:47;;;;;;;7.8;3.6;;;;;;;7.69;87.29;98183.333333333;;;;
2024/02/04 19:22:47;;;;;;;5.7;3.1;;;;;;;7.66;85.82;98186.666666667;;;;
2024/02/04 19:32:47;;;;;;;5.7;3.1;;;;;;;7.76;82.62;98175;;;;
2024/02/04 19:42:47;;;;;;;5.7;3.1;;;;;;;7.76;84.44;98198.333333333;;;;
2024/02/04 19:53:47;;;;;;;5.8;3.6;;;;;;;7.86;84.32;98178.333333333;;;;
2024/02/04 20:04:47;;;;;;;5.8;3.6;;;;;;;7.85;85.17;98183.333333333;;;;
2024/02/04 20:15:47;;;;;;;5.8;3.6;;;;;;;7.81;85.05;98181.666666667;;;;
2024/02/04 20:25:48;;;;;;;6.4;4.2;;;;;;;7.85;84.55;98183.333333333;;;;
2024/02/04 20:35:47;;;;;;;6.4;4.2;;;;;;;7.78;84.68;98176.666666667;;;;
2024/02/04 20:45:47;;;;;;;6.4;4.2;;;;;;;7.8;83.7;98170;;;;
2024/02/04 20:56:47;;;;;;;7.8;4.2;;;;;;;7.74;82.69;98170;;;;
2024/02/04 21:06:47;;;;;;;7.8;4.2;;;;;;;7.79;82.44;98166.666666667;;;;
2024/02/04 21:16:47;;;;;;;7.8;4.2;;;;;;;7.72;81.64;98163.333333333;;;;
2024/02/04 21:26:47;;;;;;;6.6;3.4;;;;;;;7.53;83.55;98176.666666667;;;;
2024/02/04 21:36:47;;;;;;;6.6;3.4;;;;;;;7.33;84.33;98171.666666667;;;;
2024/02/04 21:47:47;;;;;;;6.6;3.4;;;;;;;7.02;82.01;98173.333333333;;;;
2024/02/04 21:57:47;;;;;;;9.8;4.1;;;;;;;6.93;81.65;98151.666666667;;;;
2024/02/04 22:08:47;;;;;;;9.8;4.1;;;;;;;6.59;84.56;98156.666666667;;;;
2024/02/04 22:19:47;;;;;;;4.5;2.2;;;;;;;6.34;85.91;98138.333333333;;;;
2024/02/04 22:30:48;;;;;;;4.5;2.2;;;;;;;6.15;86.47;98156.666666667;;;;
2024/02/04 22:41:48;;;;;;;4.5;2.2;;;;;;;5.88;86.67;98146.666666667;;;;
2024/02/04 22:52:47;;;;;;;3.8;1.3;;;;;;;5.69;87.19;98145;;;;
2024/02/04 23:02:47;;;;;;;3.8;1.3;;;;;;;5.59;86.76;98143.333333333;;;;
2024/02/04 23:13:47;;;;;;;3.8;1.3;;;;;;;5.5;87.31;98138.333333333;;;;
2024/02/04 23:23:47;;;;;;;1.6;0.9;;;;;;;5.48;88.32;98143.333333333;;;;
2024/02/04 23:34:47;;;;;;;1.6;0.9;;;;;;;5.32;89.4;98148.333333333;;;;
2024/02/04 23:44:47;;;;;;;1.6;0.9;;;;;;;5.3;89.52;98138.333333333;;;;
2024/02/04 23:54:47;;;;;;;1.6;0.8;;;;;;;5.33;90.23;98136.666666667;;;;
